KMSO/MSO METAR and TAF weather

Enter ICAO airport designator
Station Type Date Time Source
KMSO METAR 2019/08/23 16:53 UTC NOAA

KMSO 231653Z 24004KT 10SM FEW015 17/12 A3006 RMK AO2 SLP167 T01670122


Station Type Date Time Source
KMSO Decoded METAR 2019/08/23 16:53 UTC NOAA

Station name not available
Aug 23, 2019 - 12:53 PM EDT / 2019.08.23 1653 UTC
Wind: from the WSW (240 degrees) at 5 MPH (4 KT):0
Visibility: 10 mile(s):0
Sky conditions: mostly clear
Temperature: 62.1 F (16.7 C)
Dew Point: 54.0 F (12.2 C)
Relative Humidity: 74%
Pressure (altimeter): 30.06 in. Hg (1017 hPa)
ob: KMSO 231653Z 24004KT 10SM FEW015 17/12 A3006 RMK AO2 SLP167 T01670122
cycle: 17

Station Type Date Time Source
KMSO TAF 2019/08/23 18:22 UTC NOAA

TAF KMSO 231720Z 2318/2418 24004KT P6SM FEW020
FM232200 30010KT P6SM BKN080
FM240200 30005KT P6SM BKN120

Example: see airport list